createdAt,value
2023-03-22T00:01:13.372Z,5.63
2023-03-22T00:03:47.167Z,5.62
2023-03-22T00:06:21.350Z,5.60
2023-03-22T00:08:55.983Z,5.58
2023-03-22T00:11:29.520Z,5.58
2023-03-22T00:14:03.661Z,5.59
2023-03-22T00:16:37.362Z,5.58
2023-03-22T00:19:10.934Z,5.54
2023-03-22T00:21:45.357Z,5.48
2023-03-22T00:24:18.901Z,5.45
2023-03-22T00:26:52.959Z,5.44
2023-03-22T00:29:26.549Z,5.42
2023-03-22T00:32:00.524Z,5.39
2023-03-22T00:34:36.559Z,5.35
2023-03-22T00:37:10.229Z,5.32
2023-03-22T00:39:44.596Z,5.27
2023-03-22T00:42:18.270Z,5.23
2023-03-22T00:44:55.427Z,5.22
2023-03-22T00:47:28.863Z,5.21
2023-03-22T00:50:02.595Z,5.21
2023-03-22T00:52:36.649Z,5.21
2023-03-22T00:55:11.445Z,5.21
2023-03-22T00:57:45.276Z,5.19
2023-03-22T01:00:20.283Z,5.17
2023-03-22T01:03:00.209Z,5.15
2023-03-22T01:05:35.325Z,5.11
2023-03-22T01:08:10.320Z,5.10
2023-03-22T01:10:45.127Z,5.13
2023-03-22T01:13:19.287Z,5.16
2023-03-22T01:15:55.145Z,5.16
2023-03-22T01:18:28.882Z,5.14
2023-03-22T01:21:02.407Z,5.13
2023-03-22T01:23:36.243Z,5.13
2023-03-22T01:26:10.321Z,5.12
2023-03-22T01:28:43.831Z,5.11
2023-03-22T01:31:17.504Z,5.11
2023-03-22T01:33:51.756Z,5.11
2023-03-22T01:36:26.175Z,5.10
2023-03-22T01:39:00.033Z,5.07
2023-03-22T01:41:35.562Z,5.07
2023-03-22T01:44:15.803Z,5.05
2023-03-22T01:46:50.693Z,5.05
2023-03-22T01:49:29.143Z,5.04
2023-03-22T01:52:05.283Z,5.03
2023-03-22T01:55:18.653Z,5.02
2023-03-22T01:57:55.779Z,5.00
2023-03-22T02:00:39.679Z,4.96
2023-03-22T02:03:27.604Z,4.94
2023-03-22T02:06:01.976Z,4.92
2023-03-22T02:08:35.925Z,4.90
2023-03-22T02:11:18.927Z,4.89
2023-03-22T02:14:05.619Z,4.88
2023-03-22T02:17:11.705Z,4.83
2023-03-22T02:20:15.938Z,4.79
2023-03-22T02:23:24.380Z,4.75
2023-03-22T02:26:34.404Z,4.68
2023-03-22T02:29:14.170Z,4.62
2023-03-22T02:32:12.650Z,4.60
2023-03-22T02:34:54.678Z,4.61
2023-03-22T02:38:00.522Z,4.59
2023-03-22T02:40:40.743Z,4.59
2023-03-22T02:43:23.854Z,4.58
2023-03-22T02:46:05.074Z,4.55
2023-03-22T02:48:44.126Z,4.54
2023-03-22T02:51:23.791Z,4.54
2023-03-22T02:54:01.484Z,4.55
2023-03-22T02:56:41.535Z,4.53
2023-03-22T02:59:18.033Z,4.52
2023-03-22T03:01:54.148Z,4.49
2023-03-22T03:04:30.387Z,4.46
2023-03-22T03:07:09.789Z,4.41
2023-03-22T03:09:46.265Z,4.38
2023-03-22T03:12:23.481Z,4.35
2023-03-22T03:14:57.852Z,4.36
2023-03-22T03:17:42.663Z,4.35
2023-03-22T03:20:30.572Z,4.34
2023-03-22T03:23:17.770Z,4.31
2023-03-22T03:26:02.201Z,4.29
2023-03-22T03:28:40.864Z,4.24
2023-03-22T03:31:30.436Z,4.20
2023-03-22T03:34:13.117Z,4.20
2023-03-22T03:36:54.552Z,4.21
2023-03-22T03:39:32.425Z,4.22
2023-03-22T03:42:08.618Z,4.22
2023-03-22T03:44:43.634Z,4.21
2023-03-22T03:47:18.658Z,4.19
2023-03-22T03:49:52.587Z,4.16
2023-03-22T03:52:26.942Z,4.14
2023-03-22T03:55:00.705Z,4.14
2023-03-22T03:57:38.316Z,4.13
2023-03-22T04:00:15.228Z,4.14
2023-03-22T04:03:12.427Z,4.14
2023-03-22T04:06:09.211Z,4.13
2023-03-22T04:08:45.809Z,4.10
2023-03-22T04:11:21.853Z,4.08
2023-03-22T04:13:57.187Z,4.07
2023-03-22T04:16:31.311Z,4.09
2023-03-22T04:19:05.012Z,4.10
2023-03-22T04:21:39.002Z,4.10
2023-03-22T04:24:14.335Z,4.10
2023-03-22T04:26:49.412Z,4.08
2023-03-22T04:29:48.565Z,4.03
2023-03-22T04:33:01.620Z,4.00
2023-03-22T04:35:48.837Z,4.00
2023-03-22T04:38:23.226Z,3.99
2023-03-22T04:40:58.860Z,3.97
2023-03-22T04:43:47.250Z,3.95
2023-03-22T04:46:22.988Z,3.92
2023-03-22T04:49:01.481Z,3.88
2023-03-22T04:51:35.304Z,3.84
2023-03-22T04:54:22.990Z,3.85
2023-03-22T04:56:57.153Z,3.89
2023-03-22T04:59:31.938Z,3.94
2023-03-22T05:02:06.183Z,3.97
2023-03-22T05:04:46.383Z,3.99
2023-03-22T05:07:40.980Z,3.98
2023-03-22T05:10:16.069Z,4.03
2023-03-22T05:12:49.788Z,4.09
2023-03-22T05:15:27.651Z,4.18
2023-03-22T05:18:01.478Z,4.26
2023-03-22T05:20:35.355Z,4.34
2023-03-22T05:23:19.873Z,4.48
2023-03-22T05:25:58.572Z,4.55
2023-03-22T05:28:33.276Z,4.61
2023-03-22T05:31:18.046Z,4.65
2023-03-22T05:34:01.760Z,4.71
2023-03-22T05:36:37.464Z,4.92
2023-03-22T05:39:34.208Z,5.26
2023-03-22T05:42:07.684Z,5.61
2023-03-22T05:44:42.631Z,6.31
2023-03-22T05:47:18.963Z,7.15
2023-03-22T05:50:05.694Z,7.71
2023-03-22T05:52:40.139Z,8.03
2023-03-22T05:55:30.625Z,8.74
2023-03-22T05:58:05.549Z,8.92
2023-03-22T06:00:41.939Z,9.17
2023-03-22T06:03:36.348Z,9.62
2023-03-22T06:06:17.427Z,10.03
2023-03-22T06:09:16.027Z,10.27
2023-03-22T06:11:51.500Z,10.50
2023-03-22T06:14:25.674Z,10.60
2023-03-22T06:17:15.825Z,10.59
2023-03-22T06:19:51.442Z,10.83
2023-03-22T06:22:26.934Z,11.15
2023-03-22T06:25:01.581Z,11.20
2023-03-22T06:27:42.688Z,11.37
2023-03-22T06:30:17.764Z,11.88
2023-03-22T06:33:13.168Z,12.08
2023-03-22T06:35:49.845Z,11.79
2023-03-22T06:38:28.804Z,11.42
2023-03-22T06:41:02.304Z,11.10
2023-03-22T06:43:36.275Z,10.92
2023-03-22T06:46:21.605Z,10.86
2023-03-22T06:49:03.590Z,10.90
2023-03-22T06:51:37.136Z,11.05
2023-03-22T06:54:13.017Z,11.32
2023-03-22T06:56:46.927Z,11.55
2023-03-22T06:59:21.393Z,11.74
2023-03-22T07:01:55.720Z,11.64
2023-03-22T07:04:29.642Z,11.45
2023-03-22T07:07:03.728Z,11.24
2023-03-22T07:09:38.083Z,11.01
2023-03-22T07:12:12.306Z,10.80
2023-03-22T07:14:46.116Z,10.67
2023-03-22T07:17:38.382Z,10.68
2023-03-22T07:20:13.499Z,10.76
2023-03-22T07:22:48.554Z,10.81
2023-03-22T07:25:23.014Z,10.82
2023-03-22T07:28:03.058Z,10.84
2023-03-22T07:30:38.390Z,10.87
2023-03-22T07:33:13.668Z,10.99
2023-03-22T07:35:47.978Z,11.45
2023-03-22T07:38:21.766Z,11.97
2023-03-22T07:40:57.313Z,12.63
2023-03-22T07:43:47.313Z,12.93
2023-03-22T07:46:30.118Z,13.05
2023-03-22T07:49:23.845Z,13.50
2023-03-22T07:52:14.366Z,14.24
2023-03-22T07:54:48.191Z,14.66
2023-03-22T07:57:22.359Z,14.53
2023-03-22T08:00:02.000Z,14.31
2023-03-22T08:02:49.594Z,14.58
2023-03-22T08:05:45.451Z,15.05
2023-03-22T08:08:21.042Z,15.31
2023-03-22T08:10:54.623Z,15.37
2023-03-22T08:13:28.485Z,15.24
2023-03-22T08:16:02.616Z,15.02
2023-03-22T08:18:36.830Z,14.88
2023-03-22T08:21:12.225Z,14.68
2023-03-22T08:23:48.692Z,14.47
2023-03-22T08:26:42.951Z,14.07
2023-03-22T08:29:24.093Z,13.83
2023-03-22T08:32:02.698Z,13.70
2023-03-22T08:34:40.429Z,13.57
2023-03-22T08:37:14.421Z,13.39
2023-03-22T08:39:49.380Z,13.36
2023-03-22T08:42:28.878Z,13.44
2023-03-22T08:45:02.749Z,13.57
2023-03-22T08:47:36.845Z,13.58
2023-03-22T08:50:13.016Z,13.44
2023-03-22T08:52:54.067Z,13.21
2023-03-22T08:55:37.148Z,13.08
2023-03-22T08:58:21.402Z,13.04
2023-03-22T09:01:17.097Z,12.99
2023-03-22T09:04:03.767Z,12.96
2023-03-22T09:06:37.838Z,13.02
2023-03-22T09:09:12.217Z,13.08
2023-03-22T09:11:46.577Z,12.98
2023-03-22T09:14:20.089Z,12.79
2023-03-22T09:16:53.917Z,12.68
2023-03-22T09:19:27.840Z,12.61
2023-03-22T09:22:01.717Z,12.57
2023-03-22T09:24:42.235Z,12.56
2023-03-22T09:27:16.255Z,12.59
2023-03-22T09:29:51.257Z,12.62
2023-03-22T09:32:25.879Z,12.63
2023-03-22T09:35:04.837Z,12.61
2023-03-22T09:37:45.903Z,12.63
2023-03-22T09:40:20.452Z,12.69
2023-03-22T09:42:57.812Z,12.76
2023-03-22T09:45:39.039Z,12.82
2023-03-22T09:48:19.272Z,12.89
2023-03-22T09:50:55.429Z,12.95
2023-03-22T09:53:31.235Z,13.01
2023-03-22T09:56:11.705Z,13.01
2023-03-22T09:58:52.622Z,13.12
2023-03-22T10:01:38.668Z,13.32
2023-03-22T10:04:42.525Z,13.39
2023-03-22T10:07:27.538Z,13.39
2023-03-22T10:10:18.666Z,13.34
2023-03-22T10:13:00.391Z,13.24
2023-03-22T10:15:39.307Z,13.16
2023-03-22T10:18:20.307Z,13.13
2023-03-22T10:21:00.865Z,13.10
2023-03-22T10:23:40.869Z,13.05
2023-03-22T10:26:23.598Z,13.04
2023-03-22T10:29:04.094Z,13.10
2023-03-22T10:31:38.182Z,13.20
2023-03-22T10:34:19.120Z,13.28
2023-03-22T10:36:54.638Z,13.32
2023-03-22T10:39:35.747Z,13.33
2023-03-22T10:42:13.979Z,13.40
2023-03-22T10:44:52.502Z,13.56
2023-03-22T10:47:33.702Z,13.75
2023-03-22T10:50:11.933Z,13.91
2023-03-22T10:52:52.660Z,14.01
2023-03-22T10:55:27.892Z,14.05
2023-03-22T10:58:12.825Z,14.03
2023-03-22T11:00:49.822Z,13.97
2023-03-22T11:03:38.359Z,13.94
2023-03-22T11:06:15.783Z,13.86
2023-03-22T11:08:51.394Z,13.76
2023-03-22T11:11:28.299Z,13.75
2023-03-22T11:14:08.276Z,13.73
2023-03-22T11:16:49.795Z,13.73
2023-03-22T11:19:28.325Z,13.76
2023-03-22T11:22:04.180Z,13.79
2023-03-22T11:24:38.273Z,13.79
2023-03-22T11:27:22.872Z,13.82
2023-03-22T11:29:59.780Z,13.77
2023-03-22T11:32:37.269Z,13.79
2023-03-22T11:35:16.965Z,13.89
2023-03-22T11:37:53.197Z,13.97
2023-03-22T11:40:28.508Z,14.04
2023-03-22T11:43:13.353Z,14.09
2023-03-22T11:45:50.044Z,14.06
2023-03-22T11:48:27.506Z,14.03
2023-03-22T11:51:07.527Z,14.04
2023-03-22T11:53:44.681Z,14.11
2023-03-22T11:56:23.954Z,14.15
2023-03-22T11:59:07.156Z,14.16
2023-03-22T12:01:46.161Z,14.18
2023-03-22T12:04:24.708Z,14.22
2023-03-22T12:06:58.517Z,14.39
2023-03-22T12:09:41.689Z,14.50
2023-03-22T12:12:20.059Z,14.55
2023-03-22T12:14:59.180Z,14.63
2023-03-22T12:17:39.192Z,14.71
2023-03-22T12:20:23.795Z,14.61
2023-03-22T12:22:58.663Z,14.55
2023-03-22T12:25:36.039Z,14.55
2023-03-22T12:28:15.798Z,14.66
2023-03-22T12:30:51.598Z,14.85
2023-03-22T12:33:30.211Z,15.01
2023-03-22T12:36:06.663Z,15.06
2023-03-22T12:38:48.725Z,15.00
2023-03-22T12:41:28.626Z,14.99
2023-03-22T12:44:05.523Z,15.04
2023-03-22T12:46:51.063Z,15.10
2023-03-22T12:49:35.589Z,15.08
2023-03-22T12:52:17.771Z,15.11
2023-03-22T12:54:53.998Z,15.24
2023-03-22T12:57:27.929Z,15.29
2023-03-22T13:00:11.044Z,15.31
2023-03-22T13:02:55.322Z,15.33
2023-03-22T13:05:31.827Z,15.30
2023-03-22T13:08:06.213Z,15.29
2023-03-22T13:10:59.221Z,15.27
2023-03-22T13:13:48.068Z,15.42
2023-03-22T13:16:50.986Z,15.67
2023-03-22T13:19:38.595Z,16.40
2023-03-22T13:22:30.944Z,17.13
2023-03-22T13:25:15.206Z,17.46
2023-03-22T13:27:57.079Z,17.97
2023-03-22T13:30:35.091Z,17.79
2023-03-22T13:33:22.230Z,17.27
2023-03-22T13:35:59.261Z,16.78
2023-03-22T13:38:35.415Z,16.44
2023-03-22T13:41:10.893Z,16.19
2023-03-22T13:43:51.466Z,15.92
2023-03-22T13:46:48.345Z,15.71
2023-03-22T13:49:45.049Z,15.55
2023-03-22T13:52:30.178Z,15.35
2023-03-22T13:55:04.486Z,15.24
2023-03-22T13:57:51.617Z,15.25
2023-03-22T14:00:39.419Z,15.31
2023-03-22T14:03:23.567Z,15.43
2023-03-22T14:06:07.727Z,15.51
2023-03-22T14:08:42.378Z,15.53
2023-03-22T14:11:25.841Z,15.47
2023-03-22T14:14:07.081Z,15.42
2023-03-22T14:16:43.825Z,15.35
2023-03-22T14:19:23.714Z,15.27
